AirNav   Everest Fuels
 
 352 users online  

96NY Massaro Heliport
Carmel, New York, USA

GOING TO CARMEL?


FAA INFORMATION EFFECTIVE 26 MARCH 2020

Location

FAA Identifier: 96NY
Lat/Long: 41-22-58.0000N 073-44-18.0000W
41-22.966667N 073-44.300000W
41.3827778,-73.7383333
(estimated)
Elevation: 681 ft. / 208 m (estimated)
From city: 4 miles SW of CARMEL, NY
Time zone: UTC -4 (UTC -5 during Standard Time)
Zip code: 10541

Heliport Operations

Heliport use: Private use. Permission required prior to landing
Activation date: 07/2009
Control tower: no
ARTCC: NEW YORK CENTER
FSS: BUFFALO FLIGHT SERVICE STATION
Attendance: UNATNDD
Wind indicator: yes
Segmented circle: no

Heliport Communications

WX ASOS at DXR (12 nm E): 127.75 (203-791-8227)
WX ASOS at POU (16 nm NW): 126.75 (845-462-0648)
WX ASOS at HPN (19 nm S): PHONE 914-288-0216

Nearby radio navigation aids

VOR radial/distance  VOR name  Freq  Var
CMKr323/9.4CARMEL VOR/DME116.6012W
IGNr179/17.4KINGSTON VOR/DME117.6012W
PWLr207/24.0PAWLING VOR/DME114.3012W
BDRr308/30.7BRIDGEPORT VOR/DME108.8012W
TEBr036/35.2TETERBORO VOR/DME108.4011W
LGAr021/36.4LA GUARDIA VOR/DME113.1012W
HUOr103/38.4HUGUENOT VOR/DME116.1011W

 
NDB name  Hdg/Dist  Freq  Var  ID
STANWYCK134/16.326112WSKU ... -.- ..-

Heliport Services

Runway Information

Helipad H1

Dimensions: 30 x 30 ft. / 9 x 9 m
Surface: concrete
Traffic pattern: leftleft

Heliport Ownership and Management from official FAA records

Ownership: Privately-owned
Owner: JOE MASSARO
30 WEST LAKE BLVD
MAHOPAC, NY 10541
Phone 914-403-3762
Manager: JOE MASSARO
30 WEST LAKE BLVD
MAHOPAC, NY 10541
Phone 914-403-3762

Heliport Operational Statistics

Aircraft based on the field: 1
Helicopters: 1
    

Additional Remarks

FOR CD CTC NEW YORK APCH AT 516-683-2849.

Instrument Procedures

There are no published instrument procedures at 96NY.

Some nearby airports with instrument procedures:

KDXR - Danbury Municipal Airport (12 nm E)
KPOU - Hudson Valley Regional Airport (16 nm NW)
KSWF - New York Stewart International Airport (18 nm NW)
KHPN - Westchester County Airport (19 nm S)
44N - Sky Acres Airport (19 nm N)
 
Loc | Ops | Rwys | IFR | FBO | Links
Com | Nav | Svcs | Stats | Notes
Aerial photo
No photo
 
Sectional chart

 
Airport distance calculator
Flying to Massaro Heliport? Find the distance to fly.

From to 96NY

Sunrise and sunset
Times for 30-Mar-2020
 Local
(UTC-4)
 Zulu
(UTC)
Morning civil twilight06:1310:13
Sunrise06:4110:41
Sunset19:1823:18
Evening civil twilight19:4523:45

Current date and time
Zulu (UTC)  30-Mar-2020 06:59:52
Local (UTC-4)  30-Mar-2020 02:59:52
 
METAR
KDXR 
12nm E 
300653Z AUTO 02008KT 10SM OVC010 05/03 A2995 RMK AO2 SLP143 T00500033
KPOU 
16nm NW 
300653Z 05003KT 10SM OVC018 07/04 A2994 RMK AO2 SLP135 T00670039
KSWF 
17nm NW 
300645Z 06007KT 6SM BR OVC020 06/05 A2993
KHPN 
19nm S 
300556Z 02005KT 10SM OVC007 07/05 A2990 RMK AO2 SLP129 60000 T00670050 10078 20067 53011
TAF
KPOU 
16nm NW 
300521Z 3006/3106 06005KT P6SM VCSH BKN015 OVC022 TEMPO 3009/3013 5SM BR OVC009 FM301800 01004KT 5SM -SHRA BR OVC020 PROB30 3018/3022 2SM SHRA BR OVC015 FM302200 35003KT P6SM VCSH OVC020
KSWF 
17nm NW 
300543Z 3006/3112 05005KT 5SM -DZ BR OVC007 FM300800 VRB03KT 5SM BR OVC006 TEMPO 3008/3012 3SM -DZ BR OVC004 FM301200 VRB03KT P6SM SCT009 BKN015 FM301500 VRB05KT P6SM VCSH SCT015 BKN025 FM301800 26006KT P6SM VCSH BKN030 OVC040 FM302100 32008KT P6SM VCSH OVC030 FM310100 03005KT P6SM VCSH OVC020 FM310700 05005KT 4SM BR OVC009 AMD NOT SKED
KHPN 
19nm S 
300538Z 3006/3106 02005KT P6SM OVC005 TEMPO 3006/3010 5SM -DZ BR FM301300 VRB04KT P6SM SCT009 OVC018 FM301700 VRB04KT P6SM VCSH SCT020 OVC040 FM302200 32009KT P6SM VCSH SCT030 OVC050 FM310200 35005KT P6SM VCSH OVC015 AMD NOT SKED
NOTAMs
Click for the latest NOTAMs
NOTAMs are issued by the DoD/FAA and will open in a separate window not controlled by AirNav.

 

 
 

Would you like to see your business listed on this page?

 If your business provides an interesting product or service to pilots, flight crews, aircraft, or users of the Massaro Heliport, you should consider listing it here.  To start the listing process, click on the button below
 
Add a business
 

Other Pages about Massaro Heliport

Update a link
 
Copyright © AirNav, LLC. All rights reserved. Privacy Policy  Contact